createdAt,value
2022-09-10T00:01:29.577Z,100268.41
2022-09-10T00:03:57.244Z,100276.34
2022-09-10T00:06:27.941Z,100273.00
2022-09-10T00:08:59.215Z,100268.38
2022-09-10T00:11:31.219Z,100268.56
2022-09-10T00:14:09.101Z,100266.47
2022-09-10T00:16:35.965Z,100271.28
2022-09-10T00:19:02.998Z,100280.94
2022-09-10T00:21:30.207Z,100275.06
2022-09-10T00:23:57.958Z,100275.44
2022-09-10T00:26:28.979Z,100278.56
2022-09-10T00:29:01.539Z,100283.19
2022-09-10T00:31:30.868Z,100301.38
2022-09-10T00:34:00.448Z,100298.66
2022-09-10T00:36:36.137Z,100296.13
2022-09-10T00:39:15.752Z,100290.09
2022-09-10T00:41:46.806Z,100283.59
2022-09-10T00:44:41.580Z,100297.22
2022-09-10T00:47:21.887Z,100285.91
2022-09-10T00:49:54.471Z,100288.88
2022-09-10T00:52:21.458Z,100283.38
2022-09-10T00:54:48.568Z,100297.88
2022-09-10T00:57:21.044Z,100301.81
2022-09-10T00:59:54.970Z,100309.81
2022-09-10T01:02:21.974Z,100307.53
2022-09-10T01:04:49.868Z,100315.50
2022-09-10T01:07:16.808Z,100315.69
2022-09-10T01:09:44.264Z,100328.94
2022-09-10T01:13:16.295Z,100312.19
2022-09-10T01:15:57.937Z,100315.97
2022-09-10T01:19:03.198Z,100310.91
2022-09-10T01:21:57.599Z,100311.16
2022-09-10T01:24:39.168Z,100313.69
2022-09-10T01:27:37.329Z,100323.28
2022-09-10T01:30:07.663Z,100320.78
2022-09-10T01:33:35.662Z,100313.22
2022-09-10T01:36:12.834Z,100323.31
2022-09-10T01:38:42.376Z,100319.97
2022-09-10T01:41:10.347Z,100321.66
2022-09-10T01:43:37.779Z,100324.59
2022-09-10T01:46:28.504Z,100333.84
2022-09-10T01:49:22.416Z,100338.41
2022-09-10T01:52:28.755Z,100332.56
2022-09-10T01:55:17.378Z,100336.72
2022-09-10T01:58:03.526Z,100331.31
2022-09-10T02:00:33.553Z,100340.13
2022-09-10T02:03:23.714Z,100342.22
2022-09-10T02:05:54.283Z,100335.06
2022-09-10T02:08:31.282Z,100338.84
2022-09-10T02:11:06.520Z,100332.75
2022-09-10T02:13:34.810Z,100342.56
2022-09-10T02:16:04.127Z,100332.34
2022-09-10T02:18:35.644Z,100342.38
2022-09-10T02:21:03.361Z,100342.16
2022-09-10T02:23:44.750Z,100337.75
2022-09-10T02:26:14.561Z,100342.56
2022-09-10T02:28:45.644Z,100344.44
2022-09-10T02:31:13.127Z,100356.00
2022-09-10T02:33:39.960Z,100355.16
2022-09-10T02:36:07.227Z,100353.47
2022-09-10T02:38:34.276Z,100344.69
2022-09-10T02:41:01.100Z,100340.47
2022-09-10T02:43:29.373Z,100342.16
2022-09-10T02:45:59.848Z,100345.72
2022-09-10T02:48:28.451Z,100357.25
2022-09-10T02:50:55.220Z,100347.19
2022-09-10T02:53:22.133Z,100350.97
2022-09-10T02:55:49.135Z,100356.00
2022-09-10T02:58:17.079Z,100349.72
2022-09-10T03:00:45.769Z,100352.44
2022-09-10T03:03:12.710Z,100355.16
2022-09-10T03:05:41.776Z,100362.91
2022-09-10T03:08:09.776Z,100370.66
2022-09-10T03:10:38.566Z,100371.50
2022-09-10T03:13:05.304Z,100374.25
2022-09-10T03:15:32.210Z,100373.81
2022-09-10T03:17:58.960Z,100374.88
2022-09-10T03:20:26.063Z,100377.19
2022-09-10T03:22:52.822Z,100378.44
2022-09-10T03:25:19.937Z,100375.28
2022-09-10T03:27:47.078Z,100380.09
2022-09-10T03:30:14.334Z,100378.63
2022-09-10T03:32:41.991Z,100373.94
2022-09-10T03:35:10.289Z,100380.22
2022-09-10T03:37:37.268Z,100381.84
2022-09-10T03:40:05.795Z,100373.66
2022-09-10T03:42:33.096Z,100368.81
2022-09-10T03:44:59.894Z,100366.25
2022-09-10T03:47:26.956Z,100374.56
2022-09-10T03:49:53.890Z,100374.97
2022-09-10T03:52:22.884Z,100379.09
2022-09-10T03:54:51.198Z,100379.06
2022-09-10T03:57:18.126Z,100380.03
2022-09-10T03:59:46.170Z,100370.94
2022-09-10T04:02:13.387Z,100383.03
2022-09-10T04:04:41.495Z,100377.56
2022-09-10T04:07:10.900Z,100377.50
2022-09-10T04:09:37.702Z,100374.31
2022-09-10T04:12:04.702Z,100383.09
2022-09-10T04:14:32.211Z,100386.41
2022-09-10T04:16:59.097Z,100393.06
2022-09-10T04:19:27.740Z,100401.41
2022-09-10T04:21:54.823Z,100406.00
2022-09-10T04:24:21.869Z,100398.69
2022-09-10T04:26:48.680Z,100404.59
2022-09-10T04:29:15.478Z,100400.44
2022-09-10T04:31:42.466Z,100409.91
2022-09-10T04:34:09.264Z,100414.75
2022-09-10T04:36:36.292Z,100412.69
2022-09-10T04:39:03.519Z,100420.47
2022-09-10T04:41:30.450Z,100415.66
2022-09-10T04:43:57.681Z,100418.19
2022-09-10T04:46:25.088Z,100425.31
2022-09-10T04:48:52.388Z,100416.75
2022-09-10T04:51:19.305Z,100426.03
2022-09-10T04:53:46.654Z,100424.13
2022-09-10T04:56:14.063Z,100430.25
2022-09-10T04:58:41.483Z,100425.44
2022-09-10T05:01:08.819Z,100427.16
2022-09-10T05:03:35.934Z,100436.41
2022-09-10T05:06:03.590Z,100429.28
2022-09-10T05:08:30.438Z,100431.81
2022-09-10T05:10:57.955Z,100430.56
2022-09-10T05:13:24.815Z,100428.06
2022-09-10T05:15:51.562Z,100443.22
2022-09-10T05:18:18.307Z,100453.69
2022-09-10T05:20:45.695Z,100447.00
2022-09-10T05:23:12.829Z,100459.13
2022-09-10T05:25:39.643Z,100458.50
2022-09-10T05:28:06.404Z,100457.06
2022-09-10T05:30:33.384Z,100458.13
2022-09-10T05:33:01.868Z,100457.06
2022-09-10T05:35:29.427Z,100472.94
2022-09-10T05:38:01.191Z,100484.06
2022-09-10T05:40:29.222Z,100479.91
2022-09-10T05:42:56.342Z,100487.63
2022-09-10T05:45:23.663Z,100491.81
2022-09-10T05:47:51.581Z,100491.44
2022-09-10T05:50:19.010Z,100491.88
2022-09-10T05:52:47.084Z,100489.75
2022-09-10T05:55:14.446Z,100496.47
2022-09-10T05:57:41.903Z,100497.72
2022-09-10T06:00:09.821Z,100500.25
2022-09-10T06:02:37.390Z,100496.00
2022-09-10T06:05:05.028Z,100501.91
2022-09-10T06:07:32.314Z,100505.50
2022-09-10T06:10:00.277Z,100509.06
2022-09-10T06:12:27.535Z,100509.31
2022-09-10T06:14:54.803Z,100511.19
2022-09-10T06:17:21.545Z,100524.22
2022-09-10T06:19:48.392Z,100523.00
2022-09-10T06:22:15.142Z,100526.16
2022-09-10T06:24:42.390Z,100530.16
2022-09-10T06:27:09.961Z,100524.34
2022-09-10T06:29:36.919Z,100533.53
2022-09-10T06:32:04.835Z,100538.59
2022-09-10T06:34:31.742Z,100535.50
2022-09-10T06:36:58.660Z,100535.72
2022-09-10T06:39:25.471Z,100541.19
2022-09-10T06:41:53.806Z,100540.16
2022-09-10T06:44:21.468Z,100542.47
2022-09-10T06:47:28.259Z,100549.22
2022-09-10T06:49:36.683Z,100550.91
2022-09-10T06:52:03.743Z,100557.88
2022-09-10T06:54:30.826Z,100561.25
2022-09-10T06:56:58.243Z,100557.09
2022-09-10T06:59:25.289Z,100555.69
2022-09-10T07:01:52.195Z,100559.25
2022-09-10T07:04:19.193Z,100571.81
2022-09-10T07:06:47.691Z,100567.44
2022-09-10T07:09:15.210Z,100574.19
2022-09-10T07:11:42.196Z,100578.00
2022-09-10T07:14:14.027Z,100580.13
2022-09-10T07:16:41.699Z,100578.03
2022-09-10T07:19:09.875Z,100592.38
2022-09-10T07:21:38.082Z,100594.53
2022-09-10T07:24:06.270Z,100597.94
2022-09-10T07:26:33.543Z,100602.19
2022-09-10T07:29:00.522Z,100602.59
2022-09-10T07:31:31.768Z,100600.56
2022-09-10T07:33:59.100Z,100609.00
2022-09-10T07:36:26.240Z,100612.38
2022-09-10T07:38:57.634Z,100616.19
2022-09-10T07:41:28.364Z,100615.78
2022-09-10T07:43:55.716Z,100619.19
2022-09-10T07:46:25.819Z,100609.31
2022-09-10T07:48:58.796Z,100615.00
2022-09-10T07:51:29.306Z,100624.66
2022-09-10T07:53:59.390Z,100625.72
2022-09-10T07:56:26.753Z,100633.28
2022-09-10T07:58:57.150Z,100632.72
2022-09-10T08:01:24.161Z,100633.75
2022-09-10T08:03:51.188Z,100636.06
2022-09-10T08:06:18.747Z,100627.25
2022-09-10T08:08:45.625Z,100631.25
2022-09-10T08:11:16.735Z,100635.69
2022-09-10T08:13:46.558Z,100634.84
2022-09-10T08:16:18.015Z,100638.44
2022-09-10T08:18:47.786Z,100646.44
2022-09-10T08:21:16.075Z,100632.38
2022-09-10T08:23:45.876Z,100651.78
2022-09-10T08:26:12.624Z,100650.50
2022-09-10T08:28:40.226Z,100643.59
2022-09-10T08:31:11.771Z,100648.22
2022-09-10T08:33:39.914Z,100651.81
2022-09-10T08:36:11.021Z,100648.44
2022-09-10T08:38:40.336Z,100649.28
2022-09-10T08:41:13.562Z,100647.19
2022-09-10T08:43:51.829Z,100646.34
2022-09-10T08:46:32.531Z,100662.13
2022-09-10T08:49:13.942Z,100659.16
2022-09-10T08:51:48.823Z,100660.00
2022-09-10T08:54:22.614Z,100666.09
2022-09-10T08:56:50.902Z,100663.78
2022-09-10T08:59:26.810Z,100656.44
2022-09-10T09:02:02.663Z,100659.56
2022-09-10T09:05:03.322Z,100663.16
2022-09-10T09:07:40.478Z,100669.03
2022-09-10T09:10:25.840Z,100669.88
2022-09-10T09:13:22.072Z,100669.59
2022-09-10T09:16:44.806Z,100668.50
2022-09-10T09:19:36.856Z,100671.66
2022-09-10T09:22:19.287Z,100689.34
2022-09-10T09:24:58.014Z,100688.34
2022-09-10T09:27:30.679Z,100684.56
2022-09-10T09:30:08.022Z,100696.34
2022-09-10T09:32:41.227Z,100683.69
2022-09-10T09:35:35.020Z,100685.81
2022-09-10T09:38:07.749Z,100684.97
2022-09-10T09:41:00.622Z,100692.94
2022-09-10T09:43:54.551Z,100700.28
2022-09-10T09:46:23.142Z,100695.56
2022-09-10T09:48:55.562Z,100705.44
2022-09-10T09:51:25.495Z,100694.38
2022-09-10T09:54:25.858Z,100699.28
2022-09-10T09:56:50.371Z,100688.50
2022-09-10T09:59:35.568Z,100708.78
2022-09-10T10:02:13.263Z,100703.03
2022-09-10T10:04:54.419Z,100703.25
2022-09-10T10:07:34.004Z,100709.41
2022-09-10T10:10:04.002Z,100702.63
2022-09-10T10:12:32.411Z,100707.22
2022-09-10T10:15:01.262Z,100700.28
2022-09-10T10:17:40.235Z,100701.16
2022-09-10T10:20:10.457Z,100715.97
2022-09-10T10:22:40.760Z,100718.72
2022-09-10T10:25:42.392Z,100718.53
2022-09-10T10:28:22.226Z,100712.81
2022-09-10T10:30:59.512Z,100712.34
2022-09-10T10:33:33.360Z,100716.97
2022-09-10T10:36:23.987Z,100716.81
2022-09-10T10:39:15.795Z,100712.84
2022-09-10T10:42:14.091Z,100714.03
2022-09-10T10:45:05.479Z,100708.06
2022-09-10T10:47:51.571Z,100711.03
2022-09-10T10:50:40.531Z,100704.09
2022-09-10T10:53:26.923Z,100710.44
2022-09-10T10:56:17.476Z,100698.75
2022-09-10T10:58:57.428Z,100705.75
2022-09-10T11:01:30.485Z,100704.06
2022-09-10T11:04:22.912Z,100709.09
2022-09-10T11:07:00.068Z,100705.28
2022-09-10T11:09:34.348Z,100705.28
2022-09-10T11:12:20.161Z,100705.63
2022-09-10T11:14:58.747Z,100706.41
2022-09-10T11:17:51.898Z,100705.59
2022-09-10T11:20:30.479Z,100705.03
2022-09-10T11:23:26.566Z,100700.41
2022-09-10T11:26:15.264Z,100701.34
2022-09-10T11:28:54.479Z,100702.31
2022-09-10T11:31:34.091Z,100703.50
2022-09-10T11:34:12.519Z,100697.19
2022-09-10T11:36:53.719Z,100704.91
2022-09-10T11:39:37.826Z,100704.03
2022-09-10T11:42:28.021Z,100708.31
2022-09-10T11:45:05.668Z,100705.81
2022-09-10T11:47:44.438Z,100707.75
2022-09-10T11:50:21.731Z,100704.16
2022-09-10T11:52:49.263Z,100708.19
2022-09-10T11:55:21.739Z,100710.59
2022-09-10T11:58:36.851Z,100715.50
2022-09-10T12:01:56.146Z,100709.13
2022-09-10T12:04:43.671Z,100716.69
2022-09-10T12:07:46.117Z,100719.31
2022-09-10T12:10:28.250Z,100716.94
2022-09-10T12:12:54.980Z,100721.13
2022-09-10T12:15:31.267Z,100725.19
2022-09-10T12:18:05.390Z,100721.81
2022-09-10T12:20:57.314Z,100716.75
2022-09-10T12:23:29.949Z,100731.25
2022-09-10T12:26:05.668Z,100729.56
2022-09-10T12:28:45.904Z,100727.53
2022-09-10T12:31:16.241Z,100725.13
2022-09-10T12:33:43.683Z,100734.13
2022-09-10T12:36:15.687Z,100733.22
2022-09-10T12:38:52.825Z,100727.25
2022-09-10T12:41:25.819Z,100734.03
2022-09-10T12:44:03.227Z,100730.69
2022-09-10T12:46:31.675Z,100739.91
2022-09-10T12:49:01.440Z,100729.72
2022-09-10T12:51:51.805Z,100740.28
2022-09-10T12:54:33.315Z,100747.78
2022-09-10T12:57:31.637Z,100749.69
2022-09-10T13:00:16.976Z,100751.59
2022-09-10T13:02:43.744Z,100756.25
2022-09-10T13:05:31.709Z,100755.78
2022-09-10T13:08:12.442Z,100750.59
2022-09-10T13:10:41.507Z,100754.53
2022-09-10T13:13:24.679Z,100750.56
2022-09-10T13:15:53.784Z,100756.53
2022-09-10T13:18:29.145Z,100751.63
2022-09-10T13:20:57.302Z,100759.28
2022-09-10T13:23:47.421Z,100757.03
2022-09-10T13:26:31.133Z,100757.41
2022-09-10T13:28:59.865Z,100757.44
2022-09-10T13:31:35.283Z,100757.22
2022-09-10T13:34:18.172Z,100764.16
2022-09-10T13:37:21.835Z,100753.28
2022-09-10T13:39:48.806Z,100754.88
2022-09-10T13:42:47.778Z,100758.72
2022-09-10T13:45:50.873Z,100762.97
2022-09-10T13:48:25.269Z,100769.53
2022-09-10T13:51:12.564Z,100759.75
2022-09-10T13:53:45.987Z,100758.41
2022-09-10T13:56:21.779Z,100756.63
2022-09-10T13:58:52.727Z,100760.47
2022-09-10T14:01:19.570Z,100774.38
2022-09-10T14:03:46.380Z,100766.13
2022-09-10T14:06:22.909Z,100769.34
2022-09-10T14:09:06.411Z,100757.16
2022-09-10T14:11:41.959Z,100763.75
2022-09-10T14:14:16.785Z,100762.56
2022-09-10T14:16:50.791Z,100766.78
2022-09-10T14:19:30.912Z,100770.13
2022-09-10T14:21:58.287Z,100766.91
2022-09-10T14:24:40.380Z,100764.38
2022-09-10T14:27:24.463Z,100767.59
2022-09-10T14:29:56.566Z,100765.94
2022-09-10T14:32:26.412Z,100772.16
2022-09-10T14:34:53.878Z,100777.28
2022-09-10T14:37:38.260Z,100779.22
2022-09-10T14:40:19.266Z,100780.69
2022-09-10T14:42:49.175Z,100773.47
2022-09-10T14:45:47.984Z,100770.13
2022-09-10T14:48:35.734Z,100780.69
2022-09-10T14:51:20.635Z,100776.25
2022-09-10T14:53:52.364Z,100773.94
2022-09-10T14:56:34.198Z,100770.13
2022-09-10T14:59:05.884Z,100769.91
2022-09-10T15:01:33.083Z,100775.28
2022-09-10T15:04:00.019Z,100775.63
2022-09-10T15:06:27.589Z,100776.25
2022-09-10T15:08:58.162Z,100770.13
2022-09-10T15:11:28.323Z,100777.78
2022-09-10T15:13:56.259Z,100773.25
2022-09-10T15:16:25.839Z,100773.47
2022-09-10T15:18:52.621Z,100778.41
2022-09-10T15:21:20.274Z,100776.59
2022-09-10T15:23:48.347Z,100772.16
2022-09-10T15:26:16.140Z,100781.75
2022-09-10T15:28:42.932Z,100778.38
2022-09-10T15:31:11.219Z,100779.06
2022-09-10T15:33:38.133Z,100782.41
2022-09-10T15:36:05.964Z,100773.44
2022-09-10T15:38:32.780Z,100771.00
2022-09-10T15:41:09.859Z,100776.91
2022-09-10T15:43:41.451Z,100777.59
2022-09-10T15:46:10.103Z,100776.13
2022-09-10T15:48:37.359Z,100778.28
2022-09-10T15:51:15.042Z,100778.78
2022-09-10T15:53:43.566Z,100779.97
2022-09-10T15:56:12.151Z,100777.22
2022-09-10T15:58:39.753Z,100781.66
2022-09-10T16:01:12.648Z,100781.28
2022-09-10T16:03:47.455Z,100773.38
2022-09-10T16:06:15.786Z,100779.19
2022-09-10T16:08:42.761Z,100776.91
2022-09-10T16:11:14.295Z,100780.97
2022-09-10T16:13:41.371Z,100773.69
2022-09-10T16:16:12.535Z,100769.38
2022-09-10T16:18:39.313Z,100770.81
2022-09-10T16:21:29.634Z,100773.44
2022-09-10T16:23:59.143Z,100767.47
2022-09-10T16:26:32.737Z,100779.56
2022-09-10T16:29:04.099Z,100771.78
2022-09-10T16:31:34.935Z,100776.06
2022-09-10T16:34:05.414Z,100784.53
2022-09-10T16:36:35.115Z,100791.06
2022-09-10T16:39:05.201Z,100788.28
2022-09-10T16:41:33.374Z,100786.00
2022-09-10T16:44:00.813Z,100784.53
2022-09-10T16:46:28.483Z,100790.91
2022-09-10T16:48:56.855Z,100783.84
2022-09-10T16:51:26.072Z,100783.25
2022-09-10T16:54:02.603Z,100787.09
2022-09-10T16:56:40.123Z,100778.66
2022-09-10T16:59:10.455Z,100787.94
2022-09-10T17:01:37.943Z,100786.88
2022-09-10T17:04:07.310Z,100793.97
2022-09-10T17:06:35.313Z,100791.56
2022-09-10T17:09:02.934Z,100799.84
2022-09-10T17:11:32.346Z,100802.28
2022-09-10T17:14:03.375Z,100797.13
2022-09-10T17:16:37.760Z,100808.59
2022-09-10T17:19:13.190Z,100808.09
2022-09-10T17:21:44.090Z,100809.22
2022-09-10T17:24:13.239Z,100812.69
2022-09-10T17:26:41.559Z,100823.53
2022-09-10T17:29:17.415Z,100821.09
2022-09-10T17:31:46.742Z,100818.44
2022-09-10T17:34:19.996Z,100818.28
2022-09-10T17:36:48.216Z,100824.06
2022-09-10T17:39:16.250Z,100818.41
2022-09-10T17:41:43.532Z,100821.84
2022-09-10T17:44:11.817Z,100819.78
2022-09-10T17:46:38.995Z,100825.34
2022-09-10T17:49:06.421Z,100827.94
2022-09-10T17:51:35.248Z,100833.50
2022-09-10T17:54:03.450Z,100830.59
2022-09-10T17:56:31.656Z,100834.47
2022-09-10T17:59:01.812Z,100830.72
2022-09-10T18:01:37.847Z,100832.66
2022-09-10T18:04:06.548Z,100833.34
2022-09-10T18:06:36.581Z,100829.59
2022-09-10T18:09:05.103Z,100834.28
2022-09-10T18:11:36.647Z,100835.19
2022-09-10T18:14:04.363Z,100839.66
2022-09-10T18:16:33.919Z,100842.44
2022-09-10T18:19:04.504Z,100840.78
2022-09-10T18:21:35.296Z,100835.34
2022-09-10T18:24:14.143Z,100840.25
2022-09-10T18:26:44.480Z,100850.22
2022-09-10T18:29:25.055Z,100852.16
2022-09-10T18:31:58.920Z,100854.13
2022-09-10T18:34:31.219Z,100857.09
2022-09-10T18:37:02.963Z,100855.66
2022-09-10T18:39:33.246Z,100862.84
2022-09-10T18:42:03.639Z,100854.03
2022-09-10T18:44:37.249Z,100857.41
2022-09-10T18:47:17.703Z,100854.69
2022-09-10T18:49:50.737Z,100862.53
2022-09-10T18:52:17.780Z,100868.47
2022-09-10T18:54:46.609Z,100884.69
2022-09-10T18:57:13.630Z,100881.56
2022-09-10T18:59:40.527Z,100888.06
2022-09-10T19:02:07.602Z,100886.41
2022-09-10T19:04:45.013Z,100892.31
2022-09-10T19:07:22.842Z,100898.22
2022-09-10T19:09:49.650Z,100898.19
2022-09-10T19:12:19.249Z,100902.81
2022-09-10T19:14:46.307Z,100909.78
2022-09-10T19:17:13.060Z,100915.03
2022-09-10T19:19:39.865Z,100904.09
2022-09-10T19:22:07.411Z,100919.25
2022-09-10T19:24:54.041Z,100917.72
2022-09-10T19:27:21.600Z,100928.47
2022-09-10T19:29:49.954Z,100927.41
2022-09-10T19:32:17.300Z,100928.44
2022-09-10T19:34:44.546Z,100933.47
2022-09-10T19:37:11.507Z,100934.50
2022-09-10T19:39:38.331Z,100935.91
2022-09-10T19:42:06.934Z,100929.19
2022-09-10T19:44:34.163Z,100929.59
2022-09-10T19:47:01.223Z,100930.19
2022-09-10T19:49:28.089Z,100930.81
2022-09-10T19:51:54.869Z,100930.59
2022-09-10T19:54:22.892Z,100932.88
2022-09-10T19:56:49.915Z,100937.28
2022-09-10T19:59:17.370Z,100934.97
2022-09-10T20:01:46.222Z,100932.81
2022-09-10T20:04:14.262Z,100937.63
2022-09-10T20:06:46.167Z,100929.19
2022-09-10T20:09:13.489Z,100928.75
2022-09-10T20:11:40.895Z,100931.03
2022-09-10T20:14:13.511Z,100930.63
2022-09-10T20:16:45.147Z,100935.84
2022-09-10T20:19:18.582Z,100942.75
2022-09-10T20:21:46.683Z,100939.78
2022-09-10T20:24:14.387Z,100949.38
2022-09-10T20:26:42.535Z,100943.66
2022-09-10T20:29:18.215Z,100947.19
2022-09-10T20:31:47.117Z,100941.28
2022-09-10T20:34:17.577Z,100949.03
2022-09-10T20:36:45.185Z,100947.09
2022-09-10T20:39:15.974Z,100943.06
2022-09-10T20:41:43.883Z,100954.38
2022-09-10T20:44:14.824Z,100948.66
2022-09-10T20:46:42.547Z,100947.38
2022-09-10T20:49:12.763Z,100942.50
2022-09-10T20:51:41.627Z,100947.34
2022-09-10T20:54:13.151Z,100942.44
2022-09-10T20:56:40.792Z,100950.38
2022-09-10T20:59:07.718Z,100945.97
2022-09-10T21:01:35.189Z,100947.41
2022-09-10T21:04:03.146Z,100956.34
2022-09-10T21:06:32.866Z,100948.75
2022-09-10T21:09:00.719Z,100946.41
2022-09-10T21:11:31.294Z,100943.03
2022-09-10T21:14:02.083Z,100941.91
2022-09-10T21:16:41.444Z,100953.88
2022-09-10T21:19:15.451Z,100950.22
2022-09-10T21:21:46.199Z,100948.94
2022-09-10T21:24:19.304Z,100943.84
2022-09-10T21:26:46.420Z,100942.75
2022-09-10T21:29:17.057Z,100935.53
2022-09-10T21:31:45.500Z,100948.47
2022-09-10T21:34:13.652Z,100945.47
2022-09-10T21:39:14.460Z,100957.16
2022-09-10T21:41:47.848Z,100958.38
2022-09-10T21:44:18.581Z,100963.38
2022-09-10T21:46:47.372Z,100974.84
2022-09-10T21:49:14.621Z,100973.34
2022-09-10T21:51:42.113Z,100969.13
2022-09-10T21:54:15.590Z,100974.75
2022-09-10T21:56:42.416Z,100980.97
2022-09-10T21:59:10.837Z,100982.19
2022-09-10T22:01:39.398Z,100986.31
2022-09-10T22:04:06.591Z,100991.78
2022-09-10T22:06:34.497Z,100991.13
2022-09-10T22:09:08.716Z,100986.22
2022-09-10T22:11:41.393Z,100987.44
2022-09-10T22:14:14.512Z,100985.94
2022-09-10T22:16:41.546Z,101001.00
2022-09-10T22:19:14.418Z,100991.13
2022-09-10T22:21:41.366Z,100995.25
2022-09-10T22:24:13.234Z,100992.22
2022-09-10T22:26:43.411Z,101000.78
2022-09-10T22:29:12.524Z,101006.44
2022-09-10T22:31:39.408Z,101000.50
2022-09-10T22:34:10.779Z,100999.84
2022-09-10T22:36:40.715Z,100998.13
2022-09-10T22:39:19.842Z,100999.53
2022-09-10T22:41:48.277Z,100998.41
2022-09-10T22:44:17.806Z,101006.56
2022-09-10T22:46:45.068Z,100997.75
2022-09-10T22:49:12.081Z,100997.91
2022-09-10T22:51:41.180Z,100990.09
2022-09-10T22:54:10.828Z,100999.31
2022-09-10T22:56:38.206Z,100995.94
2022-09-10T22:59:06.532Z,101009.72
2022-09-10T23:01:38.324Z,101004.63
2022-09-10T23:04:07.870Z,100997.53
2022-09-10T23:06:37.725Z,101002.47
2022-09-10T23:09:12.335Z,101010.00
2022-09-10T23:11:41.927Z,101001.16
2022-09-10T23:14:15.868Z,100999.44
2022-09-10T23:16:48.020Z,101006.78
2022-09-10T23:19:21.364Z,100999.28
2022-09-10T23:21:51.338Z,101006.22
2022-09-10T23:24:22.347Z,101008.94
2022-09-10T23:26:49.454Z,101004.19
2022-09-10T23:29:17.495Z,101004.63
2022-09-10T23:31:46.494Z,101008.22
2022-09-10T23:34:20.816Z,101013.03
2022-09-10T23:36:49.527Z,101011.78
2022-09-10T23:39:22.757Z,101012.81
2022-09-10T23:41:52.734Z,101015.75
2022-09-10T23:44:20.478Z,101012.72
2022-09-10T23:46:48.203Z,101013.72
2022-09-10T23:49:15.446Z,101014.59
2022-09-10T23:51:42.602Z,101022.94
2022-09-10T23:54:10.764Z,101021.22
2022-09-10T23:56:37.985Z,101027.06
2022-09-10T23:59:04.799Z,101022.81
